Weather observations for the past three days for
Menomonie Municipal Airport-Score Field
Imperial (Metric)
Date Time (cdt) Wind (mph) Vis. (mi.) Weather Sky Cond. Temperature (ºF) Relative Humidity Wind Chill (°F) Heat Index (°F) Pressure Precipitation (in)
Air Dwpt 6 hour altimeter (in) sea level (mb) 1 hr 3 hr 6 hr
Max. Min.
02 12:15 SW 3 10.00 Fair CLR 79.3 63.3 58% 81 29.94 0.0
02 11:55 Calm 10.00 Fair CLR 78.8 63.7 60% 80 29.94 0.0
02 11:35 S 5 10.00 Fair CLR 76.8 64.2 65% 79 29.94 0.0
02 11:15 Calm 10.00 Fair CLR 76.3 63.9 66% 78 29.94 0.0
02 10:55 Calm 10.00 Fair CLR 74.8 63.7 68% 29.93 0.0
02 10:35 Calm 10.00 Fair CLR 73.9 64 71% 29.93 0.0
02 10:15 Calm 10.00 Fair CLR 73.2 63.7 72% 29.93 0.0
02 09:55 SE 3 0.00 Partly Cloudy SCT014 72.1 63.7 75% 29.93 0.0 0.02 0.02
02 09:35 SE 6 10.00 Mostly Cloudy SCT012 BKN060 71.2 68.4 91% 29.94 0.0
02 09:15 Calm 10.00 Mostly Cloudy BKN060 69.1 68.4 98% 29.95 0.0
02 08:55 E 5 10.00 Fair CLR 69.4 67.8 95% 29.93 0.0
02 08:35 NE 5 10.00 Fair CLR 67.6 67.6 100% 29.92 0.0
02 08:15 NE 3 10.00 Fair CLR 65.8 65.8 100% 29.93 0.0
02 07:55 NE 5 10.00 Partly Cloudy SCT120 64.8 64.8 100% 29.93 0.0
02 07:35 E 5 10.00 Partly Cloudy SCT120 64.6 64.6 100% 29.94 0.0
02 07:15 Calm 10.00 Fair CLR 64.4 64.4 100% 29.97 0.0
02 06:55 S 7 10.00 Partly Cloudy SCT120 64.6 64.6 70.9 64.4 100% 29.97 0.0 0.25
02 06:35 S 13 G 17 10.00 Mostly Cloudy BKN120 65.1 65.1 100% 29.98 0.0
02 06:15 SW 5 10.00 Partly Cloudy SCT110 64.6 64.6 100% 29.96 0.0
02 05:55 Calm 10.00 Fair CLR 64.6 64.6 100% 29.92 0.0 0.02
02 05:35 SE 6 10.00 Fair CLR 64.6 64.6 100% 29.91 0.0 0.02
02 05:15 S 10 10.00 Fair CLR 64.8 64.8 100% 29.91 0.0
02 04:55 NE 6 10.00 Partly Cloudy SCT110 65.7 65.7 100% 29.9 0.0 0.03
02 04:35 E 6 10.00 Mostly Cloudy SCT090 BKN110 66 66 100% 29.93 0.0 0.03
02 04:15 NW 5 10.00 Thunderstorm in Vicinity OVC100 66.2 66.2 100% 29.97 0.0 0.02
02 03:55 SW 7 7.00 Overcast SCT095 OVC110 65.5 65.5 100% 29.95 0.0 0.12 0.19
02 03:35 NE 12 7.00 Mostly Cloudy BKN110 65.7 65.7 100% 29.88 0.0 0.1
02 03:15 SE 9 10.00 Overcast SCT080 SCT090 OVC110 66 66 100% 30 0.0 0.04
02 03:00 S 12 7.00 Thunderstorm in Vicinity BKN070 OVC090 68.4 68.4 100% 30.04 0.0 0.01
02 02:35 SW 8 7.00 Thunderstorm SCT070 BKN080 BKN110 70 70 100% 29.99 0.0 0.02
02 02:15 N 3 10.00 Thunderstorm in Vicinity SCT080 BKN110 70 70 100% 29.95 0.0
02 01:55 N 3 10.00 Thunderstorm SCT100 69.8 69.8 100% 29.93 0.0
02 01:35 NW 3 10.00 Mostly Cloudy SCT075 BKN120 70.3 70.3 100% 29.93 0.0
02 01:15 Calm 10.00 Overcast OVC120 70.2 70.2 100% 29.93 0.0
02 00:55 N 3 10.00 Overcast OVC120 70.7 70.7 83.8 69.4 100% 29.92 0.0
02 00:35 N 3 10.00 Overcast OVC120 70.3 70.3 100% 29.94 0.0
02 00:15 Calm 10.00 Mostly Cloudy BKN110 69.4 69.4 100% 29.94 0.0
01 23:55 Calm 10.00 Fair CLR 70 66.6 89% 29.93 0.0
01 23:35 Calm 10.00 Partly Cloudy SCT120 72.1 66.6 83% 29.93 0.0
01 23:15 Calm 10.00 Partly Cloudy SCT120 71.2 66.7 86% 29.93 0.0
01 22:55 Calm 10.00 Fair CLR 72.3 68.7 89% 29.94 0.0
01 22:35 Calm 10.00 Fair CLR 74.7 67.6 79% 29.93 0.0
01 22:15 Calm 10.00 Fair CLR 73.8 67.5 81% 29.93 0.0
01 21:55 Calm 10.00 Fair CLR 76.8 67.3 72% 79 29.93 0.0
01 21:35 Calm 10.00 Fair CLR 78.1 67.1 69% 80 29.93 0.0
01 21:15 Calm 10.00 Fair CLR 79.2 66.4 65% 81 29.93 0.0
01 20:55 Calm 10.00 Fair CLR 79 66 65% 81 29.93 0.0
01 20:35 Calm 10.00 Fair CLR 79.9 64 59% 82 29.92 0.0
01 20:15 NW 3 10.00 Fair CLR 80.2 65.3 60% 82 29.91 0.0
01 19:55 NW 5 10.00 Fair CLR 81.7 66.2 60% 84 29.91 0.0
01 19:35 Calm 10.00 Fair CLR 82.8 65.5 56% 85 29.92 0.0
01 19:15 W 3 10.00 Fair CLR 83.3 65.8 56% 85 29.92 0.0
01 18:55 W 5 10.00 Fair CLR 83.8 64.9 91.4 83.7 53% 86 29.92 0.0
01 18:35 SW 6 10.00 Fair CLR 84.2 65.8 54% 86 29.91 0.0
01 18:15 SW 6 10.00 Fair CLR 85.1 64.8 51% 87 29.91 0.0
01 17:55 SW 5 10.00 Fair CLR 86 64 48% 87 29.91 0.0
01 17:35 SW 6 10.00 Fair CLR 86 63.1 46% 87 29.91 0.0
01 17:15 SW 7 10.00 Fair CLR 87.6 60.4 40% 87 29.91 0.0
01 16:55 SW 8 10.00 Fair CLR 89.2 60.4 38% 89 29.91 0.0
01 16:35 S 7 10.00 Fair CLR 88.5 62.6 42% 89 29.91 0.0
01 16:15 SW 8 10.00 Fair CLR 88.5 63 43% 89 29.91 0.0
01 15:55 S 7 10.00 Fair CLR 87.1 63 45% 88 29.92 0.0
01 15:35 S 8 10.00 Fair CLR 87.8 61.3 41% 88 29.92 0.0
01 15:15 SW 8 10.00 Fair CLR 88.7 61 39% 89 29.92 0.0
01 14:55 Calm 10.00 Fair CLR 90.7 59.4 35% 90 29.92 0.0
01 14:35 W 6 10.00 Fair CLR 89.1 59.7 37% 89 29.92 0.0
01 14:15 W 9 10.00 Fair CLR 89.8 60.8 38% 90 29.93 0.0
01 13:55 W 8 10.00 Fair CLR 87.3 60.8 41% 87 29.94 0.0
01 13:35 W 5 10.00 Fair CLR 87.6 60.1 40% 87 29.94 0.0
01 13:15 SW 6 10.00 Fair CLR 88.5 60.3 39% 88 29.95 0.0
01 12:55 NW 7 10.00 Fair CLR 88.2 59.7 88.2 63 38% 88 29.96 0.0
01 12:35 SW 3 10.00 Fair CLR 86.7 58.6 39% 86 29.97 0.0
01 12:15 SW 7 10.00 Fair CLR 86.5 58.1 38% 86 29.97 0.0
01 11:55 W 6 10.00 Fair CLR 85.1 57 38% 84 29.96 0.0
01 11:35 SW 3 10.00 Fair CLR 84 55 37% 83 29.97 0.0
01 11:15 W 5 10.00 Fair CLR 82.9 61.5 48% 84 29.97 0.0
01 10:55 SW 3 10.00 Fair CLR 81.7 62.4 52% 83 29.97 0.0
01 10:35 Calm 10.00 Fair CLR 79.2 64 60% 81 29.98 0.0
01 10:15 W 3 10.00 Fair CLR 77.2 65.5 67% 79 29.98 0.0
01 09:55 W 3 10.00 Fair CLR 75.2 65.5 72% 77 29.98 0.0
01 09:35 NW 3 10.00 Fair CLR 72.9 68.9 87% 29.98 0.0
01 09:15 SW 3 10.00 Fair CLR 70.9 70.7 99% 29.99 0.0
01 08:55 W 3 10.00 Fair CLR 69.8 69.8 100% 29.98 0.0
01 08:35 Calm 10.00 Fair CLR 68.7 68.7 100% 29.98 0.0
01 08:15 Calm 10.00 Fair CLR 66.6 66.6 100% 29.97 0.0
01 07:55 Calm 10.00 Fair CLR 65.1 65.1 100% 29.96 0.0
01 07:35 Calm 7.00 Fair CLR 63.5 63.5 100% 29.96 0.0
01 07:15 Calm 7.00 Fair CLR 63.3 63.3 100% 29.96 0.0
01 06:55 Calm 10.00 Fair CLR 63.3 63.3 68.5 61.7 100% 29.95 0.0
01 06:35 Calm 10.00 Fair CLR 63.1 63.1 100% 29.95 0.0
01 06:15 Calm 3.00 Fair CLR 61.7 61.7 100% 29.94 0.0
01 05:55 Calm 3.00 Fair CLR 62.8 62.8 100% 29.93 0.0
01 05:35 Calm 1.25 Sky Obscured VV007 64 64 100% 29.93 0.0
01 05:15 Calm 3.00 Partly Cloudy SCT002 63.5 63.5 100% 29.93 0.0
01 04:55 Calm 4.00 Partly Cloudy SCT002 63 63 100% 29.93 0.0
01 04:35 Calm 2.50 Fair CLR 63.5 63.5 100% 29.93 0.0
01 04:20 Calm 10.00 Fair CLR 65.3 65.3 100% 29.93 0.0
01 03:55 Calm 10.00 Fair CLR 65.3 65.3 100% 29.93 0.0
01 03:35 Calm 7.00 Fair CLR 66 66 100% 29.93 0.0
01 03:15 Calm 10.00 Fair CLR 66.6 66.6 100% 29.93 0.0
01 02:55 SW 3 10.00 Fair CLR 66.6 66.6 100% 29.94 0.0
01 02:35 W 3 10.00 Fair CLR 67.1 67.1 100% 29.94 0.0
01 02:15 W 6 7.00 Fair CLR 66.7 66.7 100% 29.95 0.0
01 01:55 Calm 0.50 Mostly Cloudy BKN002 65.7 65.7 100% 29.94 0.0
01 01:35 Calm 0.25 Mostly Cloudy BKN002 66.4 66.4 100% 29.93 0.0
01 01:15 Calm 2.50 Partly Cloudy SCT002 68.4 68.4 100% 29.93 0.0
01 00:55 Calm 1.50 Sky Obscured VV007 68.5 68.5 85.8 68.5 100% 29.93 0.0
01 00:35 Calm 7.00 Fair CLR 69.8 69.8 100% 29.93 0.0
01 00:15 W 3 10.00 Fair CLR 69.8 69.8 100% 29.92 0.0
31 23:55 W 3 10.00 Fair CLR 69.6 69.6 100% 29.92 0.0
31 23:35 Calm 10.00 Fair CLR 70.2 70.2 100% 29.92 0.0
31 23:15 Calm 10.00 Fair CLR 70.2 70.2 100% 29.92 0.0
31 22:55 Calm 5.00 Fair CLR 69.3 69.3 100% 29.92 0.0
31 22:35 Calm 10.00 Fair CLR 70.2 70.2 100% 29.91 0.0
31 22:15 Calm 10.00 Fair CLR 73.6 73.6 100% 29.91 0.0
31 22:00 Calm 10.00 Fair CLR 74.7 74.7 100% 29.91 0.0
31 21:35 N 7 10.00 Fair CLR 74.1 73.9 99% 29.91 0.0
31 21:15 NW 5 10.00 Fair CLR 76.5 69.4 79% 78 29.9 0.0
31 20:55 NW 6 10.00 Fair CLR 79.7 68.5 69% 82 29.9 0.0
31 20:35 NW 8 10.00 Fair CLR 77.5 68.9 75% 79 29.89 0.0
31 20:15 W 3 10.00 Fair CLR 79.7 68.9 70% 82 29.88 0.0
31 19:55 NW 5 10.00 Fair CLR 81 68.5 66% 84 29.88 0.0
31 19:35 N 3 10.00 Fair CLR 82.4 70 66% 86 29.88 0.0
31 19:15 NW 6 10.00 Fair CLR 84 69.4 62% 88 29.88 0.0
31 18:55 NW 8 10.00 Fair CLR 86.2 68.9 92.1 85.5 56% 90 29.87 0.0
31 18:35 NW 8 10.00 Fair CLR 86.4 69.8 58% 91 29.87 0.0
31 18:15 NW 7 10.00 Fair CLR 87.8 70.7 57% 93 29.87 0.0
31 17:55 NW 8 10.00 Fair CLR 88.3 69.3 53% 93 29.87 0.0
31 17:35 NW 9 10.00 Fair CLR 88.9 71.2 56% 95 29.86 0.0
31 17:15 NW 12 10.00 Partly Cloudy SCT037 90.3 72.1 55% 98 29.86 0.0
31 16:55 NW 8 10.00 Mostly Cloudy BKN037 91.6 73.2 55% 100 29.86 0.0
31 16:35 W 7 10.00 Mostly Cloudy BKN037 90.7 72.1 55% 98 29.85 0.0
31 16:15 W 7 G 21 10.00 Partly Cloudy SCT037 91.8 72.1 53% 100 29.85 0.0
31 15:55 SW 5 10.00 Fair CLR 91.8 73 54% 101 29.84 0.0
31 15:35 Calm 10.00 Fair CLR 91 72.5 55% 99 29.84 0.0
31 15:15 NW 5 10.00 Fair CLR 91.4 71.8 53% 99 29.84 0.0
31 14:55 W 3 10.00 Fair CLR 90 73.8 59% 99 29.84 0.0
31 14:35 Calm 10.00 Fair CLR 89.8 72.5 57% 97 29.84 0.0
31 14:15 SW 5 10.00 Fair CLR 88.3 73.9 62% 97 29.85 0.0
31 13:55 W 5 10.00 Partly Cloudy SCT027 87.3 73.8 64% 95 29.85 0.0
31 13:35 Calm 10.00 Partly Cloudy SCT027 87.6 74.1 64% 96 29.85 0.0
31 13:15 Calm 10.00 Partly Cloudy SCT027 87.6 74.3 65% 97 29.86 0.0
31 12:55 Calm 10.00 Partly Cloudy SCT027 88.2 74.3 88.2 68.5 64% 97 29.86 0.0
31 12:35 SW 6 10.00 Fair CLR 87.6 73.9 64% 96 29.86 0.0
31 12:15 W 5 10.00 Fair CLR 86.2 73.8 67% 94 29.86 0.0
31 11:55 Calm 10.00 Fair CLR 85.1 72.9 67% 92 29.85 0.0
31 11:35 Calm 10.00 Fair CLR 84 72.1 68% 90 29.85 0.0
31 11:15 Calm 10.00 Fair CLR 83.5 72.9 70% 90 29.84 0.0
31 10:55 Calm 10.00 Fair CLR 82.6 72.3 71% 88 29.84 0.0
31 10:35 W 3 10.00 Fair CLR 82.2 72.9 73% 88 29.84 0.0
31 10:15 W 6 10.00 Fair CLR 80.8 73.2 78% 86 29.83 0.0
31 09:55 W 5 10.00 Fair CLR 79.9 73.4 81% 84 29.83 0.0
31 09:35 Calm 10.00 Fair CLR 79 76.5 92% 83 29.83 0.0
31 09:15 Calm 10.00 Fair CLR 77.4 76.1 96% 79 29.83 0.0
31 08:55 Calm 10.00 Fair CLR 75.2 75.2 100% 73 29.82 0.0
31 08:35 Calm 10.00 Fair CLR 74.3 74.3 100% 29.81 0.0
31 08:15 Calm 10.00 Fair CLR 72.5 72.5 100% 29.82 0.0
31 07:55 Calm 10.00 Fair CLR 70.7 70.7 100% 29.81 0.0
31 07:35 E 3 7.00 Fair CLR 69.8 69.8 100% 29.8 0.0
31 07:15 Calm 5.00 Fair CLR 68.9 68.9 100% 29.8 0.0
31 06:55 SE 3 7.00 Fair CLR 68.5 68.5 72.9 68.5 100% 29.79 0.0
31 06:35 SE 5 7.00 Fair CLR 68.7 68.7 100% 29.8 0.0
31 06:15 SE 5 10.00 Fair CLR 68.9 68.9 100% 29.8 0.0
31 05:55 E 3 10.00 Fair CLR 68.9 68.9 100% 29.8 0.0
31 05:35 SE 3 10.00 Fair CLR 68.5 68.5 100% 29.8 0.0
31 05:15 SE 5 10.00 Fair CLR 69.1 69.1 100% 29.8 0.0
31 04:55 E 3 10.00 Fair CLR 69.4 69.4 100% 29.8 0.0
31 04:35 E 3 10.00 Fair CLR 70 70 100% 29.8 0.0
31 04:15 SE 6 10.00 Fair CLR 69.8 69.8 100% 29.8 0.0
31 03:55 SE 5 10.00 Fair CLR 70 70 100% 29.8 0.0
31 03:35 SE 6 10.00 Fair CLR 69.8 69.8 100% 29.8 0.0
31 03:15 E 5 10.00 Fair CLR 70.2 70.2 100% 29.79 0.0
31 02:55 SE 5 10.00 Fair CLR 70 70 100% 29.79 0.0
31 02:35 SE 6 10.00 Fair CLR 70.9 70.9 100% 29.8 0.0
31 02:15 SE 6 10.00 Partly Cloudy SCT043 71.1 71.1 100% 29.81 0.0
31 01:55 SE 5 10.00 Overcast OVC043 72 72 100% 29.82 0.0
31 01:35 SE 5 10.00 Mostly Cloudy BKN045 72.1 72.1 100% 29.82 0.0
31 01:15 SE 3 10.00 Mostly Cloudy BKN045 72.3 72.3 100% 29.83 0.0
31 00:55 E 5 10.00 Overcast OVC045 72.9 72.9 82.6 72 100% 29.83 0.0
31 00:35 Calm 10.00 Mostly Cloudy BKN045 72.5 72.5 100% 29.84 0.0
31 00:15 E 3 10.00 Partly Cloudy SCT047 72.1 72.1 100% 29.84 0.0
30 23:55 E 3 10.00 Mostly Cloudy BKN047 72.7 72.7 100% 29.84 0.0
30 23:35 SE 5 10.00 Partly Cloudy SCT047 73 73 100% 29.84 0.0
30 23:15 SE 6 10.00 Fair CLR 73.4 73.4 100% 29.85 0.0
30 22:55 SE 7 10.00 Fair CLR 75.2 68 78% 76 29.85 0.0
30 22:35 SE 8 10.00 Fair CLR 74.7 69.3 83% 29.85 0.0
30 22:15 SE 8 10.00 Fair CLR 76.5 67.3 73% 78 29.85 0.0
30 21:55 SE 9 10.00 Fair CLR 77.4 67.1 71% 79 29.85 0.0
30 21:35 S 8 10.00 Fair CLR 77.4 67.5 72% 79 29.86 0.0
30 21:15 S 7 10.00 Fair CLR 77.9 68.5 73% 80 29.86 0.0
30 20:55 SE 5 10.00 Fair CLR 77.4 73.9 89% 79 29.85 0.0
30 20:35 SE 6 10.00 Fair CLR 77.9 76.3 95% 80 29.85 0.0
30 20:15 SE 7 10.00 Fair CLR 79 77 94% 83 29.84 0.0
30 19:55 SE 6 10.00 Partly Cloudy SCT035 SCT041 79.7 74.1 83% 84 29.83 0.0
30 19:35 SE 5 10.00 Mostly Cloudy BKN035 BKN040 81.3 72.1 74% 86 29.84 0.0
30 19:15 E 6 10.00 Mostly Cloudy BKN035 BKN044 82.2 71.8 71% 87 29.83 0.0
30 18:55 E 8 10.00 Partly Cloudy SCT034 82.8 71.6 86.4 78.8 69% 88 29.83 0.0
30 18:35 E 5 10.00 Mostly Cloudy BKN031 BKN036 82.9 71.6 69% 88 29.83 0.0
30 18:15 E 6 10.00 Mostly Cloudy BKN031 83.1 71.2 67% 88 29.83 0.0
30 17:55 E 9 10.00 Fair CLR 84.4 71.4 65% 90 29.82 0.0
30 17:35 E 8 10.00 Fair CLR 84.6 71.1 64% 90 29.82 0.0
30 17:15 E 8 10.00 Partly Cloudy SCT028 83.8 70.9 65% 89 29.82 0.0
30 16:55 SE 10 10.00 Mostly Cloudy BKN030 85.3 70.7 62% 90 29.82 0.0
30 16:35 SE 12 10.00 Overcast OVC028 85.8 70.7 61% 91 29.83 0.0
30 16:15 SE 10 10.00 Overcast BKN025 BKN031 OVC070 83.7 70.2 64% 88 29.83 0.0
30 15:55 SE 10 10.00 Mostly Cloudy BKN025 BKN031 BKN070 83.1 70.2 65% 87 29.83 0.0
30 15:35 SE 10 10.00 Partly Cloudy SCT025 SCT065 82.6 70 66% 87 29.83 0.0
30 15:15 E 10 10.00 Partly Cloudy SCT065 82.6 70 66% 87 29.82 0.0
30 14:55 E 10 10.00 Partly Cloudy SCT065 81.9 69.8 67% 86 29.83 0.0
30 14:35 E 12 10.00 Partly Cloudy SCT028 81.9 70.2 68% 86 29.84 0.0
30 14:15 E 9 10.00 Overcast OVC026 80.4 69.4 69% 84 29.85 0.0
30 13:55 SE 10 10.00 Overcast OVC024 79.9 69.4 71% 83 29.86 0.0
30 13:35 SE 9 10.00 Overcast OVC024 79.2 69.8 73% 82 29.87 0.0
30 13:15 E 7 10.00 Overcast OVC024 79 69.3 72% 82 29.87 0.0
30 12:55 SE 12 10.00 Overcast OVC024 79 69.1 81 66.4 72% 82 29.88 0.0
30 12:35 SE 13 10.00 Overcast OVC024 80.2 68.9 68% 83 29.86 0.0
Date Time (cdt) Wind (mph) Vis. (mi.) Weather Sky Cond. Air Dwpt Max. Min. Relative Humidity Wind Chill (°F) Heat Index (°F) altimeter (in) sea level (mb) 1 hr 3 hr 6 hr
6 hour
Temperature (ºF) Pressure Precipitation (in)